Terminal Aerodrome Forecast
Issued by NWS

Home | Current Version | Previous Version | Text Only | Print | Product List | Glossary On
Versions: 1 2 3 4 5 6 7 8 9 10 11 12 13 14 15 16 17
000
FTUS45 KABQ 022334
TAFLVS
TAF
KLVS 022334Z 0300/0324 25011KT P6SM VCSH SCT080 BKN110
     FM030400 VRB06KT P6SM BKN200
     FM031600 22011KT P6SM SCT120 BKN200
     FM031900 23014G23KT P6SM SCT090 BKN150=

USA.gov is the U.S. government's official web portal to all federal, state and local government web resources and services.